Terminal Aerodrome Forecast
Issued by NWS Sioux Falls, SD

Home | Current Version | Previous Version | Graphics & Text | Print | Product List | Glossary Off
Versions: 1 2 3 4 5 6 7 8 9 10 11 12 13 14 15 16 17 18 19 20

000
FTUS43 KFSD 160532
TAFHON
TAF
KHON 160532Z 1606/1706 34019G28KT P6SM OVC018
     FM160900 34015G25KT P6SM OVC018
     FM161400 34012KT P6SM BKN018
     FM162000 33012KT P6SM SCT018
     FM170000 33005KT P6SM SKC=

USA.gov is the U.S. government's official web portal to all federal, state and local government web resources and services.